Paynesville, Missouri
Current Conditions -  °F | °C
As of 4:15 AM on Thursday 18 Dec 2014 (Local Time) from KPPQ Reporting Station
Scattered Clouds Scattered Clouds  
Wind Chill: 28°   Ceiling: Unl
Heat Index: 28°   Visibility: 10mi
Dew Point: 24°   Wind: 0mph
Humidity: 84%   Direction: NA
Pressure: 30.29"   Gusts: NA
Location:  39.3277°N, 90.9481°W
Report Text: KPPQ 181015Z AUTO 00000KT 10SM SCT075 SCT090 M02/M05 A3029 RMK AO2 T10231047
Loading
Personal Weather Stations






























Interactive Weather Map New forecast layout! Learn more

10-Day Weather Forecast

Advertisements
Track Severe Weather on mobile